createdAt,value
2023-01-19T00:00:28.576Z,1.00
2023-01-19T00:02:55.153Z,1.00
2023-01-19T00:05:21.968Z,1.10
2023-01-19T00:07:48.448Z,1.10
2023-01-19T00:10:15.408Z,1.10
2023-01-19T00:12:41.954Z,1.10
2023-01-19T00:15:09.059Z,1.20
2023-01-19T00:17:35.662Z,1.30
2023-01-19T00:20:02.214Z,1.40
2023-01-19T00:22:28.653Z,1.50
2023-01-19T00:24:55.129Z,1.60
2023-01-19T00:27:21.612Z,1.60
2023-01-19T00:29:48.098Z,1.70
2023-01-19T00:32:14.673Z,1.80
2023-01-19T00:34:49.650Z,1.80
2023-01-19T00:37:17.388Z,1.80
2023-01-19T00:39:43.973Z,1.80
2023-01-19T00:42:42.693Z,1.80
2023-01-19T00:45:11.152Z,1.80
2023-01-19T00:47:39.275Z,1.80
2023-01-19T00:50:07.421Z,1.70
2023-01-19T00:52:33.937Z,1.70
2023-01-19T00:55:00.412Z,1.70
2023-01-19T00:57:27.542Z,1.70
2023-01-19T00:59:54.071Z,1.70
2023-01-19T01:02:20.829Z,1.70
2023-01-19T01:04:47.387Z,1.70
2023-01-19T01:07:13.835Z,1.70
2023-01-19T01:09:40.278Z,1.70
2023-01-19T01:12:06.888Z,1.70
2023-01-19T01:14:33.447Z,1.70
2023-01-19T01:17:00.649Z,1.70
2023-01-19T01:19:27.221Z,1.70
2023-01-19T01:21:53.736Z,1.70
2023-01-19T01:24:20.767Z,1.70
2023-01-19T01:26:47.608Z,1.70
2023-01-19T01:29:14.091Z,1.70
2023-01-19T01:31:40.817Z,1.70
2023-01-19T01:34:07.368Z,1.80
2023-01-19T01:36:33.907Z,1.80
2023-01-19T01:39:00.449Z,1.70
2023-01-19T01:41:27.525Z,1.80
2023-01-19T01:43:58.821Z,1.80
2023-01-19T01:46:27.634Z,1.80
2023-01-19T01:49:09.948Z,1.90
2023-01-19T01:51:46.187Z,1.90
2023-01-19T01:54:30.014Z,1.90
2023-01-19T01:57:02.688Z,1.90
2023-01-19T01:59:39.341Z,2.00
2023-01-19T02:02:39.694Z,2.00
2023-01-19T02:05:11.311Z,2.00
2023-01-19T02:08:04.040Z,2.00
2023-01-19T02:10:50.149Z,2.00
2023-01-19T02:13:20.558Z,2.00
2023-01-19T02:15:49.928Z,2.10
2023-01-19T02:18:17.039Z,2.10
2023-01-19T02:20:52.207Z,2.10
2023-01-19T02:23:30.146Z,2.00
2023-01-19T02:25:56.637Z,2.00
2023-01-19T02:28:23.225Z,2.00
2023-01-19T02:30:49.731Z,2.00
2023-01-19T02:33:16.287Z,2.00
2023-01-19T02:35:44.612Z,2.10
2023-01-19T02:38:12.686Z,2.10
2023-01-19T02:40:42.456Z,2.10
2023-01-19T02:43:09.377Z,2.10
2023-01-19T02:45:37.618Z,2.10
2023-01-19T02:48:05.769Z,2.10
2023-01-19T02:50:49.195Z,2.10
2023-01-19T02:53:29.835Z,2.10
2023-01-19T02:56:33.590Z,2.10
2023-01-19T02:59:12.177Z,2.20
2023-01-19T03:01:56.384Z,2.20
2023-01-19T03:04:25.856Z,2.20
2023-01-19T03:07:00.625Z,2.20
2023-01-19T03:09:41.428Z,2.20
2023-01-19T03:12:35.387Z,2.20
2023-01-19T03:15:15.658Z,2.10
2023-01-19T03:17:44.055Z,2.00
2023-01-19T03:20:13.636Z,2.10
2023-01-19T03:22:40.854Z,2.10
2023-01-19T03:25:08.538Z,2.10
2023-01-19T03:27:42.053Z,2.10
2023-01-19T03:30:13.912Z,2.10
2023-01-19T03:32:47.202Z,2.20
2023-01-19T03:35:16.573Z,2.20
2023-01-19T03:37:46.448Z,2.20
2023-01-19T03:40:13.164Z,2.20
2023-01-19T03:42:41.075Z,2.20
2023-01-19T03:45:09.039Z,2.30
2023-01-19T03:47:36.284Z,2.30
2023-01-19T03:50:06.070Z,2.30
2023-01-19T03:52:33.591Z,2.30
2023-01-19T03:55:01.384Z,2.30
2023-01-19T03:57:27.910Z,2.20
2023-01-19T03:59:54.436Z,2.20
2023-01-19T04:02:20.923Z,2.20
2023-01-19T04:04:47.772Z,2.10
2023-01-19T04:07:14.331Z,2.10
2023-01-19T04:09:41.062Z,2.10
2023-01-19T04:12:07.721Z,2.10
2023-01-19T04:14:34.224Z,2.20
2023-01-19T04:17:00.683Z,2.20
2023-01-19T04:19:27.226Z,2.10
2023-01-19T04:21:53.773Z,2.10
2023-01-19T04:24:20.251Z,2.10
2023-01-19T04:26:46.737Z,2.00
2023-01-19T04:29:14.303Z,1.90
2023-01-19T04:31:41.128Z,1.90
2023-01-19T04:34:07.622Z,1.90
2023-01-19T04:36:34.127Z,1.80
2023-01-19T04:39:00.621Z,1.80
2023-01-19T04:41:27.144Z,1.90
2023-01-19T04:43:53.677Z,1.90
2023-01-19T04:46:20.242Z,1.90
2023-01-19T04:48:46.750Z,1.90
2023-01-19T04:51:13.226Z,1.90
2023-01-19T04:53:39.832Z,1.90
2023-01-19T04:56:06.559Z,1.90
2023-01-19T04:58:33.115Z,1.80
2023-01-19T05:01:32.302Z,1.70
2023-01-19T05:03:59.663Z,1.70
2023-01-19T05:06:26.308Z,1.70
2023-01-19T05:08:52.949Z,1.70
2023-01-19T05:11:19.430Z,1.80
2023-01-19T05:13:45.913Z,1.80
2023-01-19T05:16:13.980Z,1.80
2023-01-19T05:18:40.510Z,1.80
2023-01-19T05:21:07.492Z,1.80
2023-01-19T05:23:34.358Z,1.80
2023-01-19T05:26:03.512Z,1.90
2023-01-19T05:28:31.635Z,1.90
2023-01-19T05:30:58.444Z,1.90
2023-01-19T05:33:25.496Z,2.00
2023-01-19T05:35:53.531Z,2.00
2023-01-19T05:38:29.480Z,2.00
2023-01-19T05:41:00.930Z,2.00
2023-01-19T05:43:27.372Z,2.10
2023-01-19T05:45:53.843Z,2.10
2023-01-19T05:48:20.405Z,2.10
2023-01-19T05:50:49.386Z,2.10
2023-01-19T05:53:17.004Z,2.10
2023-01-19T05:55:43.623Z,2.20
2023-01-19T05:58:10.168Z,2.20
2023-01-19T06:00:36.865Z,2.20
2023-01-19T06:03:04.003Z,2.10
2023-01-19T06:05:30.854Z,2.20
2023-01-19T06:07:57.416Z,2.20
2023-01-19T06:10:24.036Z,2.20
2023-01-19T06:12:52.467Z,2.20
2023-01-19T06:15:19.295Z,2.20
2023-01-19T06:17:45.911Z,2.20
2023-01-19T06:20:14.038Z,2.20
2023-01-19T06:22:40.613Z,2.20
2023-01-19T06:25:07.395Z,2.20
2023-01-19T06:27:33.902Z,2.20
2023-01-19T06:30:00.371Z,2.20
2023-01-19T06:32:26.883Z,2.20
2023-01-19T06:34:54.196Z,2.30
2023-01-19T06:37:20.967Z,2.30
2023-01-19T06:39:47.507Z,2.30
2023-01-19T06:42:14.350Z,2.20
2023-01-19T06:44:47.189Z,2.30
2023-01-19T06:47:16.339Z,2.20
2023-01-19T06:49:43.597Z,2.20
2023-01-19T06:52:18.349Z,2.20
2023-01-19T06:54:45.467Z,2.20
2023-01-19T06:57:13.251Z,2.20
2023-01-19T06:59:39.915Z,2.10
2023-01-19T07:02:26.461Z,2.20
2023-01-19T07:04:53.158Z,2.10
2023-01-19T07:07:19.649Z,2.10
2023-01-19T07:09:46.083Z,2.10
2023-01-19T07:12:14.547Z,2.10
2023-01-19T07:14:41.077Z,2.20
2023-01-19T07:17:07.803Z,2.20
2023-01-19T07:19:35.329Z,2.10
2023-01-19T07:22:03.138Z,2.10
2023-01-19T07:24:34.165Z,2.20
2023-01-19T07:27:00.847Z,2.20
2023-01-19T07:29:27.293Z,2.20
2023-01-19T07:31:56.793Z,2.30
2023-01-19T07:34:23.397Z,2.30
2023-01-19T07:36:49.899Z,2.30
2023-01-19T07:39:16.422Z,2.30
2023-01-19T07:41:42.877Z,2.30
2023-01-19T07:44:09.626Z,2.30
2023-01-19T07:46:36.198Z,2.40
2023-01-19T07:49:02.692Z,2.40
2023-01-19T07:51:29.214Z,2.40
2023-01-19T07:53:55.705Z,2.50
2023-01-19T07:56:23.413Z,2.40
2023-01-19T07:58:52.264Z,2.50
2023-01-19T08:01:18.899Z,2.50
2023-01-19T08:03:48.051Z,2.50
2023-01-19T08:06:28.391Z,2.60
2023-01-19T08:08:54.984Z,2.50
2023-01-19T08:11:21.451Z,2.50
2023-01-19T08:13:47.981Z,2.60
2023-01-19T08:16:14.482Z,2.70
2023-01-19T08:18:41.040Z,2.70
2023-01-19T08:21:07.891Z,2.70
2023-01-19T08:23:34.454Z,2.70
2023-01-19T08:26:01.439Z,2.90
2023-01-19T08:28:27.940Z,2.90
2023-01-19T08:30:54.594Z,2.90
2023-01-19T08:33:23.202Z,2.90
2023-01-19T08:35:54.210Z,2.90
2023-01-19T08:38:20.748Z,3.00
2023-01-19T08:40:48.645Z,3.00
2023-01-19T08:43:17.160Z,2.90
2023-01-19T08:45:48.142Z,2.90
2023-01-19T08:48:16.446Z,2.90
2023-01-19T08:50:46.528Z,2.90
2023-01-19T08:53:13.598Z,2.90
2023-01-19T08:55:40.621Z,3.10
2023-01-19T08:58:08.810Z,3.20
2023-01-19T09:00:40.182Z,3.20
2023-01-19T09:03:09.227Z,3.20
2023-01-19T09:05:38.638Z,3.20
2023-01-19T09:08:08.378Z,3.30
2023-01-19T09:10:36.218Z,3.30
2023-01-19T09:13:08.115Z,3.20
2023-01-19T09:15:37.527Z,3.20
2023-01-19T09:18:07.044Z,3.20
2023-01-19T09:20:36.017Z,3.20
2023-01-19T09:23:02.512Z,3.20
2023-01-19T09:25:28.963Z,3.30
2023-01-19T09:27:56.182Z,3.30
2023-01-19T09:30:22.766Z,3.30
2023-01-19T09:32:49.202Z,3.30
2023-01-19T09:35:15.912Z,3.40
2023-01-19T09:37:46.317Z,3.40
2023-01-19T09:40:13.921Z,3.50
2023-01-19T09:42:48.167Z,3.60
2023-01-19T09:45:34.303Z,3.50
2023-01-19T09:48:02.489Z,3.50
2023-01-19T09:50:36.477Z,3.60
2023-01-19T09:53:13.773Z,3.70
2023-01-19T09:55:42.566Z,3.90
2023-01-19T09:58:18.977Z,4.00
2023-01-19T10:00:56.100Z,4.20
2023-01-19T10:03:24.000Z,4.30
2023-01-19T10:06:01.368Z,4.20
2023-01-19T10:08:44.241Z,4.10
2023-01-19T10:11:51.271Z,4.10
2023-01-19T10:14:49.186Z,4.10
2023-01-19T10:17:41.966Z,4.10
2023-01-19T10:20:17.945Z,4.20
2023-01-19T10:22:48.654Z,4.30
2023-01-19T10:25:19.837Z,4.30
2023-01-19T10:27:46.736Z,4.30
2023-01-19T10:30:23.799Z,4.30
2023-01-19T10:32:51.322Z,4.40
2023-01-19T10:35:24.558Z,4.50
2023-01-19T10:37:54.594Z,4.50
2023-01-19T10:40:36.317Z,4.50
2023-01-19T10:43:32.324Z,4.50
2023-01-19T10:45:58.934Z,4.40
2023-01-19T10:48:25.599Z,4.40
2023-01-19T10:51:03.280Z,4.50
2023-01-19T10:53:29.881Z,4.50
2023-01-19T10:56:14.434Z,4.60
2023-01-19T10:58:40.954Z,4.60
2023-01-19T11:01:17.652Z,4.70
2023-01-19T11:03:45.126Z,4.80
2023-01-19T11:06:15.401Z,4.80
2023-01-19T11:08:44.285Z,4.90
2023-01-19T11:11:12.446Z,5.00
2023-01-19T11:13:43.042Z,5.10
2023-01-19T11:16:24.692Z,5.10
2023-01-19T11:18:56.477Z,5.40
2023-01-19T11:21:26.623Z,5.50
2023-01-19T11:23:56.564Z,5.60
2023-01-19T11:26:43.424Z,5.70
2023-01-19T11:29:25.949Z,5.50
2023-01-19T11:31:54.302Z,5.50
2023-01-19T11:34:32.986Z,5.50
2023-01-19T11:37:03.773Z,5.60
2023-01-19T11:39:44.822Z,5.60
2023-01-19T11:42:13.030Z,5.50
2023-01-19T11:44:46.725Z,5.50
2023-01-19T11:47:28.285Z,5.50
2023-01-19T11:50:01.391Z,5.50
2023-01-19T11:52:42.986Z,5.60
2023-01-19T11:55:30.846Z,5.60
2023-01-19T11:57:59.751Z,5.60
2023-01-19T12:00:42.795Z,5.70
2023-01-19T12:03:32.642Z,5.70
2023-01-19T12:06:04.259Z,5.60
2023-01-19T12:08:36.443Z,5.50
2023-01-19T12:11:05.281Z,5.50
2023-01-19T12:13:33.447Z,5.50
2023-01-19T12:16:07.177Z,5.40
2023-01-19T12:18:39.604Z,5.40
2023-01-19T12:21:06.381Z,5.40
2023-01-19T12:23:39.656Z,5.50
2023-01-19T12:26:24.194Z,5.60
2023-01-19T12:28:52.513Z,5.70
2023-01-19T12:31:21.994Z,5.90
2023-01-19T12:33:49.241Z,6.00
2023-01-19T12:36:32.144Z,6.10
2023-01-19T12:39:04.750Z,6.10
2023-01-19T12:41:32.895Z,6.20
2023-01-19T12:44:11.349Z,6.30
2023-01-19T12:46:41.047Z,6.20
2023-01-19T12:49:17.941Z,6.10
2023-01-19T12:51:45.944Z,5.90
2023-01-19T12:54:41.850Z,5.70
2023-01-19T12:57:19.140Z,5.60
2023-01-19T12:59:45.779Z,5.60
2023-01-19T13:02:18.481Z,5.60
2023-01-19T13:05:06.710Z,5.70
2023-01-19T13:08:08.290Z,5.60
2023-01-19T13:11:02.821Z,5.60
2023-01-19T13:13:53.553Z,5.60
2023-01-19T13:16:20.225Z,5.60
2023-01-19T13:18:53.924Z,5.80
2023-01-19T13:21:35.349Z,5.90
2023-01-19T13:24:15.901Z,5.90
2023-01-19T13:26:54.896Z,5.80
2023-01-19T13:29:47.525Z,6.00
2023-01-19T13:32:17.580Z,6.00
2023-01-19T13:34:49.666Z,6.00
2023-01-19T13:37:19.947Z,5.80
2023-01-19T13:39:50.101Z,5.70
2023-01-19T13:42:29.306Z,5.60
2023-01-19T13:44:59.936Z,5.60
2023-01-19T13:47:50.780Z,5.50
2023-01-19T13:50:23.700Z,5.40
2023-01-19T13:52:51.789Z,5.20
2023-01-19T13:55:20.402Z,5.20
2023-01-19T13:57:49.574Z,5.30
2023-01-19T14:00:18.018Z,5.40
2023-01-19T14:03:17.898Z,5.50
2023-01-19T14:05:45.172Z,5.50
2023-01-19T14:08:14.943Z,5.30
2023-01-19T14:10:45.980Z,5.20
2023-01-19T14:13:25.169Z,5.10
2023-01-19T14:15:56.971Z,5.20
2023-01-19T14:18:30.095Z,5.20
2023-01-19T14:21:01.246Z,5.20
2023-01-19T14:23:47.769Z,5.20
2023-01-19T14:26:41.635Z,5.10
2023-01-19T14:29:32.717Z,5.00
2023-01-19T14:32:27.790Z,4.90
2023-01-19T14:35:04.115Z,4.80
2023-01-19T14:37:36.018Z,4.80
2023-01-19T14:40:10.695Z,4.90
2023-01-19T14:42:44.193Z,4.90
2023-01-19T14:45:26.692Z,4.90
2023-01-19T14:48:06.513Z,4.90
2023-01-19T14:50:37.602Z,4.90
2023-01-19T14:53:07.306Z,4.90
2023-01-19T14:55:38.411Z,5.00
2023-01-19T14:58:17.557Z,4.90
2023-01-19T15:00:45.460Z,4.80
2023-01-19T15:03:12.113Z,4.70
2023-01-19T15:05:41.224Z,4.70
2023-01-19T15:08:10.991Z,4.60
2023-01-19T15:10:37.550Z,4.50
2023-01-19T15:13:04.854Z,4.40
2023-01-19T15:15:33.667Z,4.50
2023-01-19T15:18:02.724Z,4.50
2023-01-19T15:20:29.410Z,4.50
2023-01-19T15:22:55.909Z,4.50
2023-01-19T15:25:27.394Z,4.50
2023-01-19T15:27:58.159Z,4.50
2023-01-19T15:30:31.135Z,4.50
2023-01-19T15:32:58.900Z,4.50
2023-01-19T15:35:26.446Z,4.50
2023-01-19T15:37:53.825Z,4.40
2023-01-19T15:40:22.638Z,4.30
2023-01-19T15:42:50.075Z,4.20
2023-01-19T15:45:41.514Z,4.30
2023-01-19T15:48:11.015Z,4.20
2023-01-19T15:50:40.988Z,4.20
2023-01-19T15:53:11.764Z,4.20
2023-01-19T15:55:38.244Z,4.10
2023-01-19T15:58:04.733Z,4.10
2023-01-19T16:00:33.199Z,4.10
2023-01-19T16:03:01.850Z,4.10
2023-01-19T16:05:41.799Z,4.10
2023-01-19T16:08:10.210Z,4.00
2023-01-19T16:10:36.731Z,3.90
2023-01-19T16:13:04.071Z,3.90
2023-01-19T16:15:30.590Z,3.90
2023-01-19T16:17:57.157Z,3.90
2023-01-19T16:20:23.741Z,3.80
2023-01-19T16:22:50.226Z,3.70
2023-01-19T16:25:16.743Z,3.70
2023-01-19T16:27:43.205Z,3.60
2023-01-19T16:30:11.919Z,3.50
2023-01-19T16:32:38.756Z,3.50
2023-01-19T16:35:05.693Z,3.40
2023-01-19T16:37:32.293Z,3.40
2023-01-19T16:39:58.806Z,3.30
2023-01-19T16:42:25.437Z,3.30
2023-01-19T16:44:51.956Z,3.30
2023-01-19T16:47:18.495Z,3.30
2023-01-19T16:49:44.956Z,3.30
2023-01-19T16:52:11.866Z,3.30
2023-01-19T16:54:42.037Z,3.30
2023-01-19T16:57:10.007Z,3.30
2023-01-19T16:59:37.159Z,3.30
2023-01-19T17:02:03.781Z,3.40
2023-01-19T17:04:30.535Z,3.40
2023-01-19T17:06:57.117Z,3.40
2023-01-19T17:09:23.591Z,3.50
2023-01-19T17:11:50.191Z,3.50
2023-01-19T17:14:21.732Z,3.50
2023-01-19T17:16:48.925Z,3.60
2023-01-19T17:19:20.066Z,3.60
2023-01-19T17:21:48.813Z,3.60
2023-01-19T17:24:16.206Z,3.60
2023-01-19T17:26:45.749Z,3.60
2023-01-19T17:29:12.335Z,3.60
2023-01-19T17:31:38.948Z,3.60
2023-01-19T17:34:05.661Z,3.60
2023-01-19T17:36:32.911Z,3.60
2023-01-19T17:39:03.947Z,3.50
2023-01-19T17:41:34.967Z,3.40
2023-01-19T17:44:03.392Z,3.30
2023-01-19T17:46:30.304Z,3.30
2023-01-19T17:48:59.994Z,3.30
2023-01-19T17:51:27.504Z,3.30
2023-01-19T17:53:54.519Z,3.30
2023-01-19T17:56:26.164Z,3.30
2023-01-19T17:58:52.852Z,3.30
2023-01-19T18:01:32.020Z,3.30
2023-01-19T18:03:59.646Z,3.40
2023-01-19T18:06:26.290Z,3.50
2023-01-19T18:08:52.968Z,3.50
2023-01-19T18:11:21.068Z,3.50
2023-01-19T18:13:49.157Z,3.50
2023-01-19T18:16:19.134Z,3.50
2023-01-19T18:18:45.682Z,3.50
2023-01-19T18:21:14.197Z,3.50
2023-01-19T18:23:43.246Z,3.50
2023-01-19T18:26:16.002Z,3.50
2023-01-19T18:28:42.470Z,3.60
2023-01-19T18:31:14.716Z,3.60
2023-01-19T18:33:42.064Z,3.60
2023-01-19T18:36:26.416Z,3.60
2023-01-19T18:38:53.603Z,3.70
2023-01-19T18:41:21.431Z,3.70
2023-01-19T18:43:48.696Z,3.70
2023-01-19T18:46:16.257Z,3.70
2023-01-19T18:48:42.901Z,3.70
2023-01-19T18:51:11.914Z,3.70
2023-01-19T18:53:38.700Z,3.70
2023-01-19T18:56:06.543Z,3.70
2023-01-19T18:58:33.915Z,3.70
2023-01-19T19:01:01.143Z,3.70
2023-01-19T19:03:28.310Z,3.70
2023-01-19T19:05:55.841Z,3.60
2023-01-19T19:08:22.838Z,3.60
2023-01-19T19:10:49.360Z,3.60
2023-01-19T19:13:17.247Z,3.70
2023-01-19T19:15:46.622Z,3.70
2023-01-19T19:18:13.946Z,3.70
2023-01-19T19:20:44.396Z,3.70
2023-01-19T19:23:11.785Z,3.70
2023-01-19T19:25:38.700Z,3.80
2023-01-19T19:28:05.394Z,3.80
2023-01-19T19:30:34.377Z,3.80
2023-01-19T19:33:01.068Z,3.80
2023-01-19T19:35:27.752Z,3.80
2023-01-19T19:37:57.379Z,3.90
2023-01-19T19:40:26.207Z,3.80
2023-01-19T19:42:53.391Z,3.80
2023-01-19T19:45:20.273Z,3.80
2023-01-19T19:47:46.796Z,3.80
2023-01-19T19:50:14.231Z,3.80
2023-01-19T19:52:41.685Z,3.80
2023-01-19T19:55:09.852Z,3.80
2023-01-19T19:57:36.819Z,3.70
2023-01-19T20:00:05.159Z,3.70
2023-01-19T20:02:36.585Z,3.70
2023-01-19T20:05:03.690Z,3.80
2023-01-19T20:07:30.317Z,3.70
2023-01-19T20:09:59.439Z,3.60
2023-01-19T20:12:26.162Z,3.60
2023-01-19T20:14:52.728Z,3.60
2023-01-19T20:17:20.680Z,3.60
2023-01-19T20:19:48.928Z,3.60
2023-01-19T20:22:15.969Z,3.60
2023-01-19T20:24:42.540Z,3.60
2023-01-19T20:27:09.105Z,3.60
2023-01-19T20:29:35.639Z,3.60
2023-01-19T20:32:02.209Z,3.70
2023-01-19T20:34:33.180Z,3.70
2023-01-19T20:37:01.560Z,3.60
2023-01-19T20:39:30.035Z,3.60
2023-01-19T20:41:56.754Z,3.60
2023-01-19T20:44:25.177Z,3.60
2023-01-19T20:46:52.964Z,3.60
2023-01-19T20:49:20.101Z,3.60
2023-01-19T20:51:47.035Z,3.60
2023-01-19T20:54:15.732Z,3.60
2023-01-19T20:56:42.544Z,3.60
2023-01-19T20:59:10.251Z,3.60
2023-01-19T21:01:37.453Z,3.70
2023-01-19T21:04:04.260Z,3.60
2023-01-19T21:06:31.380Z,3.70
2023-01-19T21:08:58.046Z,3.60
2023-01-19T21:11:24.880Z,3.70
2023-01-19T21:13:55.593Z,3.70
2023-01-19T21:16:24.045Z,3.70
2023-01-19T21:18:50.640Z,3.70
2023-01-19T21:21:29.319Z,3.70
2023-01-19T21:23:57.559Z,3.60
2023-01-19T21:26:24.202Z,3.60
2023-01-19T21:28:50.816Z,3.50
2023-01-19T21:31:17.487Z,3.50
2023-01-19T21:33:44.080Z,3.60
2023-01-19T21:36:11.095Z,3.60
2023-01-19T21:38:38.853Z,3.60
2023-01-19T21:41:12.486Z,3.50
2023-01-19T21:43:41.640Z,3.60
2023-01-19T21:46:16.978Z,3.60
2023-01-19T21:48:43.853Z,3.60
2023-01-19T21:51:10.442Z,3.50
2023-01-19T21:53:37.214Z,3.50
2023-01-19T21:56:09.508Z,3.40
2023-01-19T21:58:36.132Z,3.40
2023-01-19T22:01:06.821Z,3.30
2023-01-19T22:03:33.411Z,3.30
2023-01-19T22:06:08.311Z,3.30
2023-01-19T22:08:35.216Z,3.30
2023-01-19T22:11:05.125Z,3.30
2023-01-19T22:13:32.540Z,3.30
2023-01-19T22:16:00.972Z,3.30
2023-01-19T22:18:27.557Z,3.30
2023-01-19T22:20:54.226Z,3.30
2023-01-19T22:23:20.734Z,3.30
2023-01-19T22:25:47.215Z,3.30
2023-01-19T22:28:13.700Z,3.30
2023-01-19T22:30:40.267Z,3.30
2023-01-19T22:33:06.788Z,3.30
2023-01-19T22:35:33.259Z,3.30
2023-01-19T22:37:59.696Z,3.30
2023-01-19T22:40:26.178Z,3.20
2023-01-19T22:42:52.622Z,3.20
2023-01-19T22:45:19.165Z,3.20
2023-01-19T22:47:46.247Z,3.20
2023-01-19T22:50:12.709Z,3.30
2023-01-19T22:52:39.195Z,3.30
2023-01-19T22:55:06.039Z,3.30
2023-01-19T22:57:35.677Z,3.30
2023-01-19T23:00:06.750Z,3.20
2023-01-19T23:02:33.246Z,3.20
2023-01-19T23:04:59.806Z,3.10
2023-01-19T23:07:26.279Z,3.00
2023-01-19T23:09:52.737Z,2.90
2023-01-19T23:12:19.180Z,2.90
2023-01-19T23:14:45.649Z,2.90
2023-01-19T23:17:12.104Z,2.90
2023-01-19T23:19:38.546Z,2.90
2023-01-19T23:22:05.118Z,2.90
2023-01-19T23:24:31.564Z,2.90
2023-01-19T23:26:58.019Z,2.80
2023-01-19T23:29:24.528Z,2.80
2023-01-19T23:31:53.312Z,2.80
2023-01-19T23:34:19.757Z,2.70
2023-01-19T23:36:46.271Z,2.60
2023-01-19T23:39:16.013Z,2.60
2023-01-19T23:41:42.545Z,2.50
2023-01-19T23:44:09.400Z,2.50
2023-01-19T23:46:35.971Z,2.40
2023-01-19T23:49:02.537Z,2.40
2023-01-19T23:51:31.425Z,2.40
2023-01-19T23:53:59.468Z,2.30
2023-01-19T23:56:29.627Z,2.30
2023-01-19T23:59:01.582Z,2.30
